sensor_id;sensor_type;location;lat;lon;timestamp;temperature;humidity
802;DHT22;383;48.766;9.270;2023-05-20T00:01:43;13.40;87.60
802;DHT22;383;48.766;9.270;2023-05-20T00:04:10;13.40;87.30
802;DHT22;383;48.766;9.270;2023-05-20T00:06:40;13.50;87.20
802;DHT22;383;48.766;9.270;2023-05-20T00:09:06;13.50;87.20
802;DHT22;383;48.766;9.270;2023-05-20T00:11:33;13.50;87.20
802;DHT22;383;48.766;9.270;2023-05-20T00:14:00;13.60;86.50
802;DHT22;383;48.766;9.270;2023-05-20T00:16:28;13.60;86.50
802;DHT22;383;48.766;9.270;2023-05-20T00:18:54;13.70;86.50
802;DHT22;383;48.766;9.270;2023-05-20T00:21:22;13.80;86.00
802;DHT22;383;48.766;9.270;2023-05-20T00:23:49;13.70;86.40
802;DHT22;383;48.766;9.270;2023-05-20T00:26:16;13.80;86.80
802;DHT22;383;48.766;9.270;2023-05-20T00:28:42;13.80;86.90
802;DHT22;383;48.766;9.270;2023-05-20T00:31:09;13.80;86.70
802;DHT22;383;48.766;9.270;2023-05-20T00:33:37;13.80;86.00
802;DHT22;383;48.766;9.270;2023-05-20T00:36:05;13.90;86.00
802;DHT22;383;48.766;9.270;2023-05-20T00:38:32;13.90;85.90
802;DHT22;383;48.766;9.270;2023-05-20T00:40:59;13.90;85.50
802;DHT22;383;48.766;9.270;2023-05-20T00:43:26;14.00;85.30
802;DHT22;383;48.766;9.270;2023-05-20T00:45:53;14.00;85.10
802;DHT22;383;48.766;9.270;2023-05-20T00:48:20;14.00;85.10
802;DHT22;383;48.766;9.270;2023-05-20T00:50:49;14.00;85.30
802;DHT22;383;48.766;9.270;2023-05-20T00:53:16;14.00;85.30
802;DHT22;383;48.766;9.270;2023-05-20T00:55:43;14.00;85.30
802;DHT22;383;48.766;9.270;2023-05-20T00:58:10;14.00;85.60
802;DHT22;383;48.766;9.270;2023-05-20T01:00:37;13.90;85.90
802;DHT22;383;48.766;9.270;2023-05-20T01:03:04;13.90;86.00
802;DHT22;383;48.766;9.270;2023-05-20T01:05:31;13.90;86.50
802;DHT22;383;48.766;9.270;2023-05-20T01:07:59;14.00;86.00
802;DHT22;383;48.766;9.270;2023-05-20T01:10:27;14.00;86.00
802;DHT22;383;48.766;9.270;2023-05-20T01:12:57;14.00;85.90
802;DHT22;383;48.766;9.270;2023-05-20T01:15:27;14.00;85.90
802;DHT22;383;48.766;9.270;2023-05-20T01:17:57;14.00;86.00
802;DHT22;383;48.766;9.270;2023-05-20T01:20:27;14.00;86.30
802;DHT22;383;48.766;9.270;2023-05-20T01:22:56;14.00;86.10
802;DHT22;383;48.766;9.270;2023-05-20T01:25:23;14.00;86.00
802;DHT22;383;48.766;9.270;2023-05-20T01:27:51;14.10;86.00
802;DHT22;383;48.766;9.270;2023-05-20T01:30:19;14.00;85.90
802;DHT22;383;48.766;9.270;2023-05-20T01:32:49;14.00;85.70
802;DHT22;383;48.766;9.270;2023-05-20T01:35:17;14.00;86.30
802;DHT22;383;48.766;9.270;2023-05-20T01:37:45;13.90;86.30
802;DHT22;383;48.766;9.270;2023-05-20T01:40:14;13.90;86.50
802;DHT22;383;48.766;9.270;2023-05-20T01:42:42;14.00;86.90
802;DHT22;383;48.766;9.270;2023-05-20T01:45:10;14.00;86.50
802;DHT22;383;48.766;9.270;2023-05-20T01:47:37;14.00;86.40
802;DHT22;383;48.766;9.270;2023-05-20T01:50:05;13.90;86.70
802;DHT22;383;48.766;9.270;2023-05-20T01:52:32;13.90;86.70
802;DHT22;383;48.766;9.270;2023-05-20T01:54:59;13.90;86.90
802;DHT22;383;48.766;9.270;2023-05-20T01:57:27;13.90;86.80
802;DHT22;383;48.766;9.270;2023-05-20T01:59:54;13.80;87.20
802;DHT22;383;48.766;9.270;2023-05-20T02:02:20;13.80;87.40
802;DHT22;383;48.766;9.270;2023-05-20T02:04:49;13.80;87.40
802;DHT22;383;48.766;9.270;2023-05-20T02:07:17;13.70;87.60
802;DHT22;383;48.766;9.270;2023-05-20T02:09:44;13.70;87.70
802;DHT22;383;48.766;9.270;2023-05-20T02:12:10;13.70;87.70
802;DHT22;383;48.766;9.270;2023-05-20T02:14:42;13.70;88.00
802;DHT22;383;48.766;9.270;2023-05-20T02:17:09;13.60;88.50
802;DHT22;383;48.766;9.270;2023-05-20T02:19:35;13.60;88.90
802;DHT22;383;48.766;9.270;2023-05-20T02:22:02;13.50;89.20
802;DHT22;383;48.766;9.270;2023-05-20T02:24:29;13.50;89.70
802;DHT22;383;48.766;9.270;2023-05-20T02:26:56;13.50;89.80
802;DHT22;383;48.766;9.270;2023-05-20T02:29:23;13.40;90.10
802;DHT22;383;48.766;9.270;2023-05-20T02:31:51;13.30;90.30
802;DHT22;383;48.766;9.270;2023-05-20T02:34:19;13.40;90.10
802;DHT22;383;48.766;9.270;2023-05-20T02:36:46;13.10;91.00
802;DHT22;383;48.766;9.270;2023-05-20T02:39:12;13.00;91.20
802;DHT22;383;48.766;9.270;2023-05-20T02:41:40;13.00;91.60
802;DHT22;383;48.766;9.270;2023-05-20T02:44:06;13.00;91.50
802;DHT22;383;48.766;9.270;2023-05-20T02:46:33;13.00;91.30
802;DHT22;383;48.766;9.270;2023-05-20T02:49:01;13.00;91.40
802;DHT22;383;48.766;9.270;2023-05-20T02:51:28;13.00;91.30
802;DHT22;383;48.766;9.270;2023-05-20T02:53:56;13.00;91.40
802;DHT22;383;48.766;9.270;2023-05-20T02:56:23;12.90;91.70
802;DHT22;383;48.766;9.270;2023-05-20T02:58:49;12.90;91.70
802;DHT22;383;48.766;9.270;2023-05-20T03:01:16;12.80;92.00
802;DHT22;383;48.766;9.270;2023-05-20T03:03:43;12.80;92.00
802;DHT22;383;48.766;9.270;2023-05-20T03:06:11;12.70;92.30
802;DHT22;383;48.766;9.270;2023-05-20T03:08:38;12.70;92.60
802;DHT22;383;48.766;9.270;2023-05-20T03:11:07;12.70;92.70
802;DHT22;383;48.766;9.270;2023-05-20T03:13:33;12.60;93.00
802;DHT22;383;48.766;9.270;2023-05-20T03:16:00;12.70;92.60
802;DHT22;383;48.766;9.270;2023-05-20T03:18:27;12.80;92.20
802;DHT22;383;48.766;9.270;2023-05-20T03:20:54;12.70;92.00
802;DHT22;383;48.766;9.270;2023-05-20T03:23:22;12.70;92.30
802;DHT22;383;48.766;9.270;2023-05-20T03:25:48;12.60;92.60
802;DHT22;383;48.766;9.270;2023-05-20T03:28:16;12.50;92.80
802;DHT22;383;48.766;9.270;2023-05-20T03:30:42;12.50;92.90
802;DHT22;383;48.766;9.270;2023-05-20T03:33:09;12.40;93.00
802;DHT22;383;48.766;9.270;2023-05-20T03:35:36;12.40;93.30
802;DHT22;383;48.766;9.270;2023-05-20T03:38:03;12.30;93.60
802;DHT22;383;48.766;9.270;2023-05-20T03:40:31;12.30;93.60
802;DHT22;383;48.766;9.270;2023-05-20T03:42:57;12.20;93.90
802;DHT22;383;48.766;9.270;2023-05-20T03:45:24;12.20;94.10
802;DHT22;383;48.766;9.270;2023-05-20T03:47:51;12.10;94.50
802;DHT22;383;48.766;9.270;2023-05-20T03:50:18;12.10;94.60
802;DHT22;383;48.766;9.270;2023-05-20T03:52:44;12.00;94.90
802;DHT22;383;48.766;9.270;2023-05-20T03:55:11;12.10;94.70
802;DHT22;383;48.766;9.270;2023-05-20T03:57:39;12.10;94.50
802;DHT22;383;48.766;9.270;2023-05-20T04:00:07;12.20;94.50
802;DHT22;383;48.766;9.270;2023-05-20T04:02:38;12.20;94.50
802;DHT22;383;48.766;9.270;2023-05-20T04:05:06;12.20;94.50
802;DHT22;383;48.766;9.270;2023-05-20T04:07:35;12.20;94.50
802;DHT22;383;48.766;9.270;2023-05-20T04:10:01;12.20;94.40
802;DHT22;383;48.766;9.270;2023-05-20T04:12:28;12.20;94.70
802;DHT22;383;48.766;9.270;2023-05-20T04:14:58;12.20;94.60
802;DHT22;383;48.766;9.270;2023-05-20T04:17:26;12.30;94.20
802;DHT22;383;48.766;9.270;2023-05-20T04:19:54;12.30;94.50
802;DHT22;383;48.766;9.270;2023-05-20T04:22:21;12.30;94.60
802;DHT22;383;48.766;9.270;2023-05-20T04:24:48;12.50;94.30
802;DHT22;383;48.766;9.270;2023-05-20T04:27:15;12.50;94.30
802;DHT22;383;48.766;9.270;2023-05-20T04:29:41;12.50;94.30
802;DHT22;383;48.766;9.270;2023-05-20T04:32:11;12.60;94.10
802;DHT22;383;48.766;9.270;2023-05-20T04:34:38;12.70;93.70
802;DHT22;383;48.766;9.270;2023-05-20T04:37:05;12.80;93.50
802;DHT22;383;48.766;9.270;2023-05-20T04:39:34;12.90;92.90
802;DHT22;383;48.766;9.270;2023-05-20T04:42:00;12.90;93.00
802;DHT22;383;48.766;9.270;2023-05-20T04:44:28;12.90;93.20
802;DHT22;383;48.766;9.270;2023-05-20T04:46:55;12.90;93.50
802;DHT22;383;48.766;9.270;2023-05-20T04:49:23;13.00;93.10
802;DHT22;383;48.766;9.270;2023-05-20T04:51:50;13.00;93.20
802;DHT22;383;48.766;9.270;2023-05-20T04:54:19;13.10;93.00
802;DHT22;383;48.766;9.270;2023-05-20T04:56:46;13.10;93.30
802;DHT22;383;48.766;9.270;2023-05-20T04:59:13;13.20;93.60
802;DHT22;383;48.766;9.270;2023-05-20T05:01:40;13.40;93.40
802;DHT22;383;48.766;9.270;2023-05-20T05:04:07;13.60;92.30
802;DHT22;383;48.766;9.270;2023-05-20T05:06:35;13.70;92.60
802;DHT22;383;48.766;9.270;2023-05-20T05:09:01;13.80;91.90
802;DHT22;383;48.766;9.270;2023-05-20T05:11:29;14.00;91.90
802;DHT22;383;48.766;9.270;2023-05-20T05:13:55;14.10;91.10
802;DHT22;383;48.766;9.270;2023-05-20T05:16:22;14.40;90.50
802;DHT22;383;48.766;9.270;2023-05-20T05:18:49;14.50;89.20
802;DHT22;383;48.766;9.270;2023-05-20T05:21:16;14.60;89.20
802;DHT22;383;48.766;9.270;2023-05-20T05:23:44;14.70;89.00
802;DHT22;383;48.766;9.270;2023-05-20T05:26:11;14.80;88.80
802;DHT22;383;48.766;9.270;2023-05-20T05:28:40;14.90;88.60
802;DHT22;383;48.766;9.270;2023-05-20T05:31:06;15.10;87.30
802;DHT22;383;48.766;9.270;2023-05-20T05:33:33;15.20;86.50
802;DHT22;383;48.766;9.270;2023-05-20T05:36:00;15.40;86.50
802;DHT22;383;48.766;9.270;2023-05-20T05:38:27;15.50;85.30
802;DHT22;383;48.766;9.270;2023-05-20T05:40:55;15.60;85.50
802;DHT22;383;48.766;9.270;2023-05-20T05:43:22;15.70;84.90
802;DHT22;383;48.766;9.270;2023-05-20T05:45:49;15.70;84.50
802;DHT22;383;48.766;9.270;2023-05-20T05:48:15;15.80;83.50
802;DHT22;383;48.766;9.270;2023-05-20T05:50:43;15.80;84.00
802;DHT22;383;48.766;9.270;2023-05-20T05:53:11;15.90;83.90
802;DHT22;383;48.766;9.270;2023-05-20T05:55:37;16.00;83.60
802;DHT22;383;48.766;9.270;2023-05-20T05:58:06;16.00;83.50
802;DHT22;383;48.766;9.270;2023-05-20T06:00:32;16.10;82.30
802;DHT22;383;48.766;9.270;2023-05-20T06:02:59;16.20;82.30
802;DHT22;383;48.766;9.270;2023-05-20T06:05:26;16.20;81.90
802;DHT22;383;48.766;9.270;2023-05-20T06:07:52;16.20;82.40
802;DHT22;383;48.766;9.270;2023-05-20T06:10:19;16.30;82.40
802;DHT22;383;48.766;9.270;2023-05-20T06:12:46;16.40;82.30
802;DHT22;383;48.766;9.270;2023-05-20T06:15:14;16.60;81.10
802;DHT22;383;48.766;9.270;2023-05-20T06:17:41;16.70;81.60
802;DHT22;383;48.766;9.270;2023-05-20T06:20:08;16.80;81.50
802;DHT22;383;48.766;9.270;2023-05-20T06:22:35;16.90;79.90
802;DHT22;383;48.766;9.270;2023-05-20T06:25:02;16.90;80.30
802;DHT22;383;48.766;9.270;2023-05-20T06:27:28;16.90;80.40
802;DHT22;383;48.766;9.270;2023-05-20T06:29:55;17.00;79.90
802;DHT22;383;48.766;9.270;2023-05-20T06:32:23;17.00;80.00
802;DHT22;383;48.766;9.270;2023-05-20T06:34:50;17.00;81.00
802;DHT22;383;48.766;9.270;2023-05-20T06:37:17;17.00;79.50
802;DHT22;383;48.766;9.270;2023-05-20T06:39:43;17.10;80.20
802;DHT22;383;48.766;9.270;2023-05-20T06:42:12;17.20;79.10
802;DHT22;383;48.766;9.270;2023-05-20T06:44:38;17.20;79.10
802;DHT22;383;48.766;9.270;2023-05-20T06:47:05;17.20;79.70
802;DHT22;383;48.766;9.270;2023-05-20T06:49:33;17.20;80.30
802;DHT22;383;48.766;9.270;2023-05-20T06:52:00;17.20;79.30
802;DHT22;383;48.766;9.270;2023-05-20T06:54:26;17.40;79.30
802;DHT22;383;48.766;9.270;2023-05-20T06:56:53;17.40;78.90
802;DHT22;383;48.766;9.270;2023-05-20T06:59:20;17.50;78.20
802;DHT22;383;48.766;9.270;2023-05-20T07:01:46;17.60;77.00
802;DHT22;383;48.766;9.270;2023-05-20T07:04:13;17.40;78.10
802;DHT22;383;48.766;9.270;2023-05-20T07:06:41;17.60;78.70
802;DHT22;383;48.766;9.270;2023-05-20T07:09:08;17.70;77.40
802;DHT22;383;48.766;9.270;2023-05-20T07:11:34;17.80;76.10
802;DHT22;383;48.766;9.270;2023-05-20T07:14:01;17.90;76.20
802;DHT22;383;48.766;9.270;2023-05-20T07:16:28;17.90;76.50
802;DHT22;383;48.766;9.270;2023-05-20T07:18:56;17.90;75.30
802;DHT22;383;48.766;9.270;2023-05-20T07:21:23;17.80;76.10
802;DHT22;383;48.766;9.270;2023-05-20T07:23:51;17.70;76.50
802;DHT22;383;48.766;9.270;2023-05-20T07:26:17;17.80;76.70
802;DHT22;383;48.766;9.270;2023-05-20T07:28:44;17.90;76.70
802;DHT22;383;48.766;9.270;2023-05-20T07:31:11;17.90;77.40
802;DHT22;383;48.766;9.270;2023-05-20T07:33:38;18.10;77.10
802;DHT22;383;48.766;9.270;2023-05-20T07:36:05;18.30;75.70
802;DHT22;383;48.766;9.270;2023-05-20T07:38:32;18.50;75.80
802;DHT22;383;48.766;9.270;2023-05-20T07:41:00;18.70;76.00
802;DHT22;383;48.766;9.270;2023-05-20T07:43:26;18.90;74.50
802;DHT22;383;48.766;9.270;2023-05-20T07:45:53;19.20;72.50
802;DHT22;383;48.766;9.270;2023-05-20T07:48:20;19.40;72.60
802;DHT22;383;48.766;9.270;2023-05-20T07:50:47;19.70;72.00
802;DHT22;383;48.766;9.270;2023-05-20T07:53:13;20.00;69.50
802;DHT22;383;48.766;9.270;2023-05-20T07:55:40;20.40;69.30
802;DHT22;383;48.766;9.270;2023-05-20T07:58:08;20.50;67.10
802;DHT22;383;48.766;9.270;2023-05-20T08:00:35;20.50;68.00
802;DHT22;383;48.766;9.270;2023-05-20T08:03:01;20.40;67.20
802;DHT22;383;48.766;9.270;2023-05-20T08:05:28;20.30;68.80
802;DHT22;383;48.766;9.270;2023-05-20T08:07:55;20.20;68.90
802;DHT22;383;48.766;9.270;2023-05-20T08:10:21;20.10;69.90
802;DHT22;383;48.766;9.270;2023-05-20T08:12:48;20.20;68.00
802;DHT22;383;48.766;9.270;2023-05-20T08:15:16;20.30;68.20
802;DHT22;383;48.766;9.270;2023-05-20T08:17:43;20.40;68.20
802;DHT22;383;48.766;9.270;2023-05-20T08:20:11;20.50;67.50
802;DHT22;383;48.766;9.270;2023-05-20T08:22:39;20.70;66.80
802;DHT22;383;48.766;9.270;2023-05-20T08:25:07;20.90;67.60
802;DHT22;383;48.766;9.270;2023-05-20T08:27:35;21.20;65.10
802;DHT22;383;48.766;9.270;2023-05-20T08:30:01;21.30;63.80
802;DHT22;383;48.766;9.270;2023-05-20T08:32:30;21.30;63.80
802;DHT22;383;48.766;9.270;2023-05-20T08:34:57;21.20;64.20
802;DHT22;383;48.766;9.270;2023-05-20T08:37:26;21.20;65.20
802;DHT22;383;48.766;9.270;2023-05-20T08:39:52;21.30;64.90
802;DHT22;383;48.766;9.270;2023-05-20T08:42:21;21.30;63.70
802;DHT22;383;48.766;9.270;2023-05-20T08:44:49;21.40;64.30
802;DHT22;383;48.766;9.270;2023-05-20T08:47:17;21.50;62.10
802;DHT22;383;48.766;9.270;2023-05-20T08:49:45;21.60;62.30
802;DHT22;383;48.766;9.270;2023-05-20T08:52:12;21.70;62.10
802;DHT22;383;48.766;9.270;2023-05-20T08:54:43;21.70;63.10
802;DHT22;383;48.766;9.270;2023-05-20T08:57:10;21.70;62.30
802;DHT22;383;48.766;9.270;2023-05-20T08:59:39;21.70;63.70
802;DHT22;383;48.766;9.270;2023-05-20T09:02:07;21.90;61.00
802;DHT22;383;48.766;9.270;2023-05-20T09:04:34;21.90;61.50
802;DHT22;383;48.766;9.270;2023-05-20T09:07:02;21.90;61.70
802;DHT22;383;48.766;9.270;2023-05-20T09:09:29;21.70;61.70
802;DHT22;383;48.766;9.270;2023-05-20T09:11:56;21.60;62.20
802;DHT22;383;48.766;9.270;2023-05-20T09:14:23;21.30;63.30
802;DHT22;383;48.766;9.270;2023-05-20T09:16:51;21.20;65.60
802;DHT22;383;48.766;9.270;2023-05-20T09:19:20;21.20;63.50
802;DHT22;383;48.766;9.270;2023-05-20T09:21:47;21.20;65.10
802;DHT22;383;48.766;9.270;2023-05-20T09:24:19;21.20;64.60
802;DHT22;383;48.766;9.270;2023-05-20T09:26:46;21.30;64.30
802;DHT22;383;48.766;9.270;2023-05-20T09:29:13;21.40;63.40
802;DHT22;383;48.766;9.270;2023-05-20T09:31:40;21.60;65.60
802;DHT22;383;48.766;9.270;2023-05-20T09:34:07;21.80;64.60
802;DHT22;383;48.766;9.270;2023-05-20T09:36:34;21.80;62.20
802;DHT22;383;48.766;9.270;2023-05-20T09:39:02;22.00;62.30
802;DHT22;383;48.766;9.270;2023-05-20T09:41:33;22.00;62.50
802;DHT22;383;48.766;9.270;2023-05-20T09:44:02;22.10;62.50
802;DHT22;383;48.766;9.270;2023-05-20T09:46:29;22.40;62.70
802;DHT22;383;48.766;9.270;2023-05-20T09:48:58;22.60;61.10
802;DHT22;383;48.766;9.270;2023-05-20T09:51:25;22.80;60.80
802;DHT22;383;48.766;9.270;2023-05-20T09:53:54;22.70;60.20
802;DHT22;383;48.766;9.270;2023-05-20T09:56:23;22.60;61.50
802;DHT22;383;48.766;9.270;2023-05-20T09:58:52;22.40;61.30
802;DHT22;383;48.766;9.270;2023-05-20T10:01:22;22.20;62.50
802;DHT22;383;48.766;9.270;2023-05-20T10:03:50;22.20;62.90
802;DHT22;383;48.766;9.270;2023-05-20T10:09:13;22.10;63.80
802;DHT22;383;48.766;9.270;2023-05-20T10:11:47;22.50;63.50
802;DHT22;383;48.766;9.270;2023-05-20T10:14:28;22.70;61.10
802;DHT22;383;48.766;9.270;2023-05-20T10:17:04;22.80;60.90
802;DHT22;383;48.766;9.270;2023-05-20T10:19:34;22.80;61.70
802;DHT22;383;48.766;9.270;2023-05-20T10:22:02;23.00;60.80
802;DHT22;383;48.766;9.270;2023-05-20T10:24:30;23.10;60.60
802;DHT22;383;48.766;9.270;2023-05-20T10:26:59;23.20;60.20
802;DHT22;383;48.766;9.270;2023-05-20T10:29:28;23.10;59.60
802;DHT22;383;48.766;9.270;2023-05-20T10:31:55;23.10;59.60
802;DHT22;383;48.766;9.270;2023-05-20T10:34:22;23.10;60.20
802;DHT22;383;48.766;9.270;2023-05-20T10:36:58;23.20;59.60
802;DHT22;383;48.766;9.270;2023-05-20T10:39:27;23.20;59.60
802;DHT22;383;48.766;9.270;2023-05-20T10:42:05;23.20;60.40
802;DHT22;383;48.766;9.270;2023-05-20T10:44:41;23.40;60.20
802;DHT22;383;48.766;9.270;2023-05-20T10:47:08;23.60;59.10
802;DHT22;383;48.766;9.270;2023-05-20T10:49:39;23.80;57.20
802;DHT22;383;48.766;9.270;2023-05-20T10:52:07;23.80;56.50
802;DHT22;383;48.766;9.270;2023-05-20T10:54:36;23.90;56.10
802;DHT22;383;48.766;9.270;2023-05-20T10:57:08;23.90;56.20
802;DHT22;383;48.766;9.270;2023-05-20T10:59:35;23.90;54.70
802;DHT22;383;48.766;9.270;2023-05-20T11:02:04;23.80;56.60
802;DHT22;383;48.766;9.270;2023-05-20T11:04:31;24.00;55.70
802;DHT22;383;48.766;9.270;2023-05-20T11:06:58;24.00;55.10
802;DHT22;383;48.766;9.270;2023-05-20T11:09:25;23.90;55.50
802;DHT22;383;48.766;9.270;2023-05-20T11:11:52;23.90;55.70
802;DHT22;383;48.766;9.270;2023-05-20T11:14:20;24.00;55.90
802;DHT22;383;48.766;9.270;2023-05-20T11:16:50;24.00;54.70
802;DHT22;383;48.766;9.270;2023-05-20T11:19:19;23.80;54.70
802;DHT22;383;48.766;9.270;2023-05-20T11:21:47;23.60;55.70
802;DHT22;383;48.766;9.270;2023-05-20T11:24:22;23.50;54.60
802;DHT22;383;48.766;9.270;2023-05-20T11:26:50;23.40;54.60
802;DHT22;383;48.766;9.270;2023-05-20T11:29:17;23.40;55.90
802;DHT22;383;48.766;9.270;2023-05-20T11:31:47;23.50;56.10
802;DHT22;383;48.766;9.270;2023-05-20T11:34:14;23.70;57.40
802;DHT22;383;48.766;9.270;2023-05-20T11:36:42;24.00;57.20
802;DHT22;383;48.766;9.270;2023-05-20T11:39:09;24.30;53.60
802;DHT22;383;48.766;9.270;2023-05-20T11:41:36;24.50;54.00
802;DHT22;383;48.766;9.270;2023-05-20T11:44:03;24.70;53.60
802;DHT22;383;48.766;9.270;2023-05-20T11:46:30;24.90;53.00
802;DHT22;383;48.766;9.270;2023-05-20T11:48:57;24.90;53.10
802;DHT22;383;48.766;9.270;2023-05-20T11:51:25;24.80;53.10
802;DHT22;383;48.766;9.270;2023-05-20T11:53:58;24.70;52.40
802;DHT22;383;48.766;9.270;2023-05-20T11:56:27;24.70;51.60
802;DHT22;383;48.766;9.270;2023-05-20T11:58:56;24.70;52.50
802;DHT22;383;48.766;9.270;2023-05-20T12:01:22;24.60;53.50
802;DHT22;383;48.766;9.270;2023-05-20T12:03:49;24.40;54.00
802;DHT22;383;48.766;9.270;2023-05-20T12:06:16;24.40;54.50
802;DHT22;383;48.766;9.270;2023-05-20T12:08:43;24.40;53.40
802;DHT22;383;48.766;9.270;2023-05-20T12:11:11;24.60;51.50
802;DHT22;383;48.766;9.270;2023-05-20T12:13:38;24.70;51.90
802;DHT22;383;48.766;9.270;2023-05-20T12:16:05;25.00;51.60
802;DHT22;383;48.766;9.270;2023-05-20T12:18:32;25.20;51.50
802;DHT22;383;48.766;9.270;2023-05-20T12:20:59;25.30;51.50
802;DHT22;383;48.766;9.270;2023-05-20T12:23:25;25.50;52.60
802;DHT22;383;48.766;9.270;2023-05-20T12:25:55;25.80;50.90
802;DHT22;383;48.766;9.270;2023-05-20T12:28:23;26.00;50.30
802;DHT22;383;48.766;9.270;2023-05-20T12:30:49;26.00;50.30
802;DHT22;383;48.766;9.270;2023-05-20T12:33:16;26.40;49.40
802;DHT22;383;48.766;9.270;2023-05-20T12:35:45;26.40;49.00
802;DHT22;383;48.766;9.270;2023-05-20T12:38:11;26.40;48.70
802;DHT22;383;48.766;9.270;2023-05-20T12:40:38;26.40;49.70
802;DHT22;383;48.766;9.270;2023-05-20T12:43:05;26.40;50.00
802;DHT22;383;48.766;9.270;2023-05-20T12:45:33;26.40;49.80
802;DHT22;383;48.766;9.270;2023-05-20T12:48:00;26.50;49.50
802;DHT22;383;48.766;9.270;2023-05-20T12:50:27;26.50;49.20
802;DHT22;383;48.766;9.270;2023-05-20T12:52:54;26.40;48.90
802;DHT22;383;48.766;9.270;2023-05-20T12:55:20;26.40;50.80
802;DHT22;383;48.766;9.270;2023-05-20T12:57:47;26.50;47.70
802;DHT22;383;48.766;9.270;2023-05-20T13:00:15;26.40;48.80
802;DHT22;383;48.766;9.270;2023-05-20T13:02:44;26.50;48.80
802;DHT22;383;48.766;9.270;2023-05-20T13:05:10;26.60;47.60
802;DHT22;383;48.766;9.270;2023-05-20T13:07:37;26.70;50.00
802;DHT22;383;48.766;9.270;2023-05-20T13:10:06;27.10;47.40
802;DHT22;383;48.766;9.270;2023-05-20T13:12:33;27.40;46.80
802;DHT22;383;48.766;9.270;2023-05-20T13:15:00;27.60;46.30
802;DHT22;383;48.766;9.270;2023-05-20T13:17:26;27.70;45.50
802;DHT22;383;48.766;9.270;2023-05-20T13:19:55;27.40;46.30
802;DHT22;383;48.766;9.270;2023-05-20T13:22:21;27.00;47.20
802;DHT22;383;48.766;9.270;2023-05-20T13:24:48;26.60;48.80
802;DHT22;383;48.766;9.270;2023-05-20T13:27:15;26.60;48.40
802;DHT22;383;48.766;9.270;2023-05-20T13:29:41;26.50;48.20
802;DHT22;383;48.766;9.270;2023-05-20T13:32:09;26.50;48.90
802;DHT22;383;48.766;9.270;2023-05-20T13:34:35;26.50;47.10
802;DHT22;383;48.766;9.270;2023-05-20T13:37:04;26.50;48.70
802;DHT22;383;48.766;9.270;2023-05-20T13:39:31;26.40;49.00
802;DHT22;383;48.766;9.270;2023-05-20T13:41:58;26.60;47.10
802;DHT22;383;48.766;9.270;2023-05-20T13:44:25;26.70;47.60
802;DHT22;383;48.766;9.270;2023-05-20T13:46:51;26.80;46.90
802;DHT22;383;48.766;9.270;2023-05-20T13:49:18;26.80;48.10
802;DHT22;383;48.766;9.270;2023-05-20T13:51:45;27.00;47.70
802;DHT22;383;48.766;9.270;2023-05-20T13:54:13;27.20;48.20
802;DHT22;383;48.766;9.270;2023-05-20T13:56:39;27.30;45.80
802;DHT22;383;48.766;9.270;2023-05-20T13:59:06;27.20;46.70
802;DHT22;383;48.766;9.270;2023-05-20T14:01:33;27.00;47.40
802;DHT22;383;48.766;9.270;2023-05-20T14:04:00;27.10;48.60
802;DHT22;383;48.766;9.270;2023-05-20T14:06:27;27.30;46.80
802;DHT22;383;48.766;9.270;2023-05-20T14:08:54;27.60;46.70
802;DHT22;383;48.766;9.270;2023-05-20T14:11:23;28.00;46.90
802;DHT22;383;48.766;9.270;2023-05-20T14:13:49;28.20;45.20
802;DHT22;383;48.766;9.270;2023-05-20T14:16:16;28.20;44.80
802;DHT22;383;48.766;9.270;2023-05-20T14:18:43;28.40;44.30
802;DHT22;383;48.766;9.270;2023-05-20T14:21:10;28.60;44.70
802;DHT22;383;48.766;9.270;2023-05-20T14:23:36;28.60;45.00
802;DHT22;383;48.766;9.270;2023-05-20T14:26:05;28.50;47.20
802;DHT22;383;48.766;9.270;2023-05-20T14:28:33;28.60;45.20
802;DHT22;383;48.766;9.270;2023-05-20T14:31:00;28.40;45.30
802;DHT22;383;48.766;9.270;2023-05-20T14:33:26;28.30;45.20
802;DHT22;383;48.766;9.270;2023-05-20T14:35:53;28.30;45.00
802;DHT22;383;48.766;9.270;2023-05-20T14:38:20;28.50;44.80
802;DHT22;383;48.766;9.270;2023-05-20T14:40:46;28.60;45.10
802;DHT22;383;48.766;9.270;2023-05-20T14:43:13;28.60;44.20
802;DHT22;383;48.766;9.270;2023-05-20T14:45:42;28.30;45.10
802;DHT22;383;48.766;9.270;2023-05-20T14:48:11;27.80;45.20
802;DHT22;383;48.766;9.270;2023-05-20T14:50:37;27.60;46.10
802;DHT22;383;48.766;9.270;2023-05-20T14:53:04;27.40;45.90
802;DHT22;383;48.766;9.270;2023-05-20T14:55:31;27.40;46.10
802;DHT22;383;48.766;9.270;2023-05-20T14:57:57;27.40;46.90
802;DHT22;383;48.766;9.270;2023-05-20T15:00:24;27.20;48.40
802;DHT22;383;48.766;9.270;2023-05-20T15:02:52;27.20;47.30
802;DHT22;383;48.766;9.270;2023-05-20T15:05:19;27.00;47.80
802;DHT22;383;48.766;9.270;2023-05-20T15:07:45;27.00;46.60
802;DHT22;383;48.766;9.270;2023-05-20T15:10:12;27.00;46.80
802;DHT22;383;48.766;9.270;2023-05-20T15:12:39;27.00;46.60
802;DHT22;383;48.766;9.270;2023-05-20T15:15:07;26.90;46.80
802;DHT22;383;48.766;9.270;2023-05-20T15:17:34;26.90;47.90
802;DHT22;383;48.766;9.270;2023-05-20T15:20:02;26.90;47.90
802;DHT22;383;48.766;9.270;2023-05-20T15:22:29;26.80;48.20
802;DHT22;383;48.766;9.270;2023-05-20T15:24:56;26.90;47.60
802;DHT22;383;48.766;9.270;2023-05-20T15:27:23;26.90;47.90
802;DHT22;383;48.766;9.270;2023-05-20T15:29:49;27.00;47.90
802;DHT22;383;48.766;9.270;2023-05-20T15:32:16;27.30;46.60
802;DHT22;383;48.766;9.270;2023-05-20T15:34:44;27.30;47.10
802;DHT22;383;48.766;9.270;2023-05-20T15:37:12;27.20;47.40
802;DHT22;383;48.766;9.270;2023-05-20T15:39:38;27.30;47.10
802;DHT22;383;48.766;9.270;2023-05-20T15:42:05;27.40;46.60
802;DHT22;383;48.766;9.270;2023-05-20T15:44:32;27.30;46.70
802;DHT22;383;48.766;9.270;2023-05-20T15:47:00;27.30;46.70
802;DHT22;383;48.766;9.270;2023-05-20T15:49:27;27.30;46.80
802;DHT22;383;48.766;9.270;2023-05-20T15:51:54;27.30;46.60
802;DHT22;383;48.766;9.270;2023-05-20T15:54:22;27.30;48.20
802;DHT22;383;48.766;9.270;2023-05-20T15:56:48;27.40;46.90
802;DHT22;383;48.766;9.270;2023-05-20T15:59:15;27.60;47.20
802;DHT22;383;48.766;9.270;2023-05-20T16:01:42;27.70;46.60
802;DHT22;383;48.766;9.270;2023-05-20T16:04:08;27.90;46.20
802;DHT22;383;48.766;9.270;2023-05-20T16:06:35;28.00;46.10
802;DHT22;383;48.766;9.270;2023-05-20T16:09:02;28.10;46.30
802;DHT22;383;48.766;9.270;2023-05-20T16:11:30;28.10;45.90
802;DHT22;383;48.766;9.270;2023-05-20T16:13:57;27.80;46.90
802;DHT22;383;48.766;9.270;2023-05-20T16:16:24;27.60;47.40
802;DHT22;383;48.766;9.270;2023-05-20T16:18:51;27.70;46.70
802;DHT22;383;48.766;9.270;2023-05-20T16:21:18;27.60;46.90
802;DHT22;383;48.766;9.270;2023-05-20T16:23:45;27.40;47.60
802;DHT22;383;48.766;9.270;2023-05-20T16:26:11;27.50;47.30
802;DHT22;383;48.766;9.270;2023-05-20T16:28:40;27.60;46.30
802;DHT22;383;48.766;9.270;2023-05-20T16:31:06;27.60;46.40
802;DHT22;383;48.766;9.270;2023-05-20T16:33:33;27.70;46.60
802;DHT22;383;48.766;9.270;2023-05-20T16:36:00;27.80;46.70
802;DHT22;383;48.766;9.270;2023-05-20T16:38:27;27.60;46.80